sensor_id;sensor_type;location;lat;lon;timestamp;P1;durP1;ratioP1;P2;durP2;ratioP2
74152;SDS011;62505;46.070;14.492;2023-05-10T00:01:10;2.15;;;1.50;;
74152;SDS011;62505;46.070;14.492;2023-05-10T00:03:37;1.77;;;1.63;;
74152;SDS011;62505;46.070;14.492;2023-05-10T00:06:04;2.47;;;2.03;;
74152;SDS011;62505;46.070;14.492;2023-05-10T00:08:31;1.92;;;1.63;;
74152;SDS011;62505;46.070;14.492;2023-05-10T00:10:58;3.55;;;1.63;;
74152;SDS011;62505;46.070;14.492;2023-05-10T00:13:26;2.55;;;1.50;;
74152;SDS011;62505;46.070;14.492;2023-05-10T00:15:53;2.45;;;1.80;;
74152;SDS011;62505;46.070;14.492;2023-05-10T00:18:20;1.60;;;1.50;;
74152;SDS011;62505;46.070;14.492;2023-05-10T00:20:47;1.92;;;1.50;;
74152;SDS011;62505;46.070;14.492;2023-05-10T00:23:14;1.98;;;1.77;;
74152;SDS011;62505;46.070;14.492;2023-05-10T00:25:41;2.65;;;1.80;;
74152;SDS011;62505;46.070;14.492;2023-05-10T00:28:08;2.00;;;1.70;;
74152;SDS011;62505;46.070;14.492;2023-05-10T00:30:36;1.73;;;1.50;;
74152;SDS011;62505;46.070;14.492;2023-05-10T00:33:03;2.13;;;1.48;;
74152;SDS011;62505;46.070;14.492;2023-05-10T00:35:30;2.58;;;1.55;;
74152;SDS011;62505;46.070;14.492;2023-05-10T00:37:57;2.20;;;1.85;;
74152;SDS011;62505;46.070;14.492;2023-05-10T00:40:24;2.03;;;1.55;;
74152;SDS011;62505;46.070;14.492;2023-05-10T00:42:51;1.90;;;1.52;;
74152;SDS011;62505;46.070;14.492;2023-05-10T00:45:18;3.25;;;1.52;;
74152;SDS011;62505;46.070;14.492;2023-05-10T00:47:46;2.50;;;1.75;;
74152;SDS011;62505;46.070;14.492;2023-05-10T00:50:13;2.08;;;1.70;;
74152;SDS011;62505;46.070;14.492;2023-05-10T00:52:41;2.58;;;1.83;;
74152;SDS011;62505;46.070;14.492;2023-05-10T00:55:09;2.63;;;1.85;;
74152;SDS011;62505;46.070;14.492;2023-05-10T00:57:37;3.03;;;2.00;;
74152;SDS011;62505;46.070;14.492;2023-05-10T01:00:05;3.65;;;1.77;;
74152;SDS011;62505;46.070;14.492;2023-05-10T01:02:33;2.30;;;1.70;;
74152;SDS011;62505;46.070;14.492;2023-05-10T01:05:01;2.10;;;1.58;;
74152;SDS011;62505;46.070;14.492;2023-05-10T01:07:30;1.80;;;1.70;;
74152;SDS011;62505;46.070;14.492;2023-05-10T01:09:57;2.55;;;2.25;;
74152;SDS011;62505;46.070;14.492;2023-05-10T01:12:24;2.08;;;1.60;;
74152;SDS011;62505;46.070;14.492;2023-05-10T01:14:51;2.90;;;1.88;;
74152;SDS011;62505;46.070;14.492;2023-05-10T01:17:18;1.73;;;1.63;;
74152;SDS011;62505;46.070;14.492;2023-05-10T01:19:45;2.47;;;1.55;;
74152;SDS011;62505;46.070;14.492;2023-05-10T01:22:19;2.08;;;1.50;;
74152;SDS011;62505;46.070;14.492;2023-05-10T01:25:08;2.72;;;1.80;;
74152;SDS011;62505;46.070;14.492;2023-05-10T01:31:03;2.20;;;1.70;;
74152;SDS011;62505;46.070;14.492;2023-05-10T01:33:40;2.10;;;1.77;;
74152;SDS011;62505;46.070;14.492;2023-05-10T01:36:14;3.45;;;1.73;;
74152;SDS011;62505;46.070;14.492;2023-05-10T01:38:51;1.65;;;1.52;;
74152;SDS011;62505;46.070;14.492;2023-05-10T01:41:25;1.75;;;1.60;;
74152;SDS011;62505;46.070;14.492;2023-05-10T01:44:01;2.55;;;1.92;;
74152;SDS011;62505;46.070;14.492;2023-05-10T01:46:32;1.95;;;1.75;;
74152;SDS011;62505;46.070;14.492;2023-05-10T01:49:03;2.28;;;1.58;;
74152;SDS011;62505;46.070;14.492;2023-05-10T01:51:36;1.88;;;1.65;;
74152;SDS011;62505;46.070;14.492;2023-05-10T01:54:07;2.30;;;1.85;;
74152;SDS011;62505;46.070;14.492;2023-05-10T01:56:35;2.45;;;1.92;;
74152;SDS011;62505;46.070;14.492;2023-05-10T01:59:11;2.40;;;2.08;;
74152;SDS011;62505;46.070;14.492;2023-05-10T02:01:41;2.30;;;1.73;;
74152;SDS011;62505;46.070;14.492;2023-05-10T02:04:10;2.38;;;1.80;;
74152;SDS011;62505;46.070;14.492;2023-05-10T02:06:40;2.45;;;1.70;;
74152;SDS011;62505;46.070;14.492;2023-05-10T02:09:08;1.88;;;1.67;;
74152;SDS011;62505;46.070;14.492;2023-05-10T02:11:37;2.75;;;1.83;;
74152;SDS011;62505;46.070;14.492;2023-05-10T02:14:05;1.73;;;1.63;;
74152;SDS011;62505;46.070;14.492;2023-05-10T02:16:35;2.00;;;1.77;;
74152;SDS011;62505;46.070;14.492;2023-05-10T02:19:04;2.78;;;1.88;;
74152;SDS011;62505;46.070;14.492;2023-05-10T02:21:34;1.70;;;1.60;;
74152;SDS011;62505;46.070;14.492;2023-05-10T02:24:03;2.67;;;1.70;;
74152;SDS011;62505;46.070;14.492;2023-05-10T02:26:31;2.85;;;1.88;;
74152;SDS011;62505;46.070;14.492;2023-05-10T02:29:01;2.03;;;1.77;;
74152;SDS011;62505;46.070;14.492;2023-05-10T02:31:29;2.00;;;1.63;;
74152;SDS011;62505;46.070;14.492;2023-05-10T02:33:58;3.85;;;2.00;;
74152;SDS011;62505;46.070;14.492;2023-05-10T02:36:26;2.38;;;1.70;;
74152;SDS011;62505;46.070;14.492;2023-05-10T02:38:55;2.85;;;2.00;;
74152;SDS011;62505;46.070;14.492;2023-05-10T02:41:24;2.70;;;1.65;;
74152;SDS011;62505;46.070;14.492;2023-05-10T02:43:53;1.90;;;1.70;;
74152;SDS011;62505;46.070;14.492;2023-05-10T02:46:25;2.60;;;1.88;;
74152;SDS011;62505;46.070;14.492;2023-05-10T02:48:52;2.13;;;1.70;;
74152;SDS011;62505;46.070;14.492;2023-05-10T02:51:19;2.05;;;1.80;;
74152;SDS011;62505;46.070;14.492;2023-05-10T02:53:50;2.05;;;1.67;;
74152;SDS011;62505;46.070;14.492;2023-05-10T02:56:25;1.60;;;1.50;;
74152;SDS011;62505;46.070;14.492;2023-05-10T02:58:57;2.08;;;1.88;;
74152;SDS011;62505;46.070;14.492;2023-05-10T03:01:26;2.15;;;1.52;;
74152;SDS011;62505;46.070;14.492;2023-05-10T03:03:53;1.95;;;1.75;;
74152;SDS011;62505;46.070;14.492;2023-05-10T03:06:20;2.00;;;1.70;;
74152;SDS011;62505;46.070;14.492;2023-05-10T03:08:47;2.72;;;1.80;;
74152;SDS011;62505;46.070;14.492;2023-05-10T03:11:24;2.38;;;1.77;;
74152;SDS011;62505;46.070;14.492;2023-05-10T03:14:02;4.18;;;2.08;;
74152;SDS011;62505;46.070;14.492;2023-05-10T03:16:38;2.75;;;1.70;;
74152;SDS011;62505;46.070;14.492;2023-05-10T03:19:11;1.80;;;1.60;;
74152;SDS011;62505;46.070;14.492;2023-05-10T03:21:43;2.55;;;1.75;;
74152;SDS011;62505;46.070;14.492;2023-05-10T03:24:13;2.13;;;1.85;;
74152;SDS011;62505;46.070;14.492;2023-05-10T03:26:42;2.88;;;1.85;;
74152;SDS011;62505;46.070;14.492;2023-05-10T03:29:11;2.80;;;1.75;;
74152;SDS011;62505;46.070;14.492;2023-05-10T03:31:39;2.30;;;1.83;;
74152;SDS011;62505;46.070;14.492;2023-05-10T03:34:06;1.83;;;1.60;;
74152;SDS011;62505;46.070;14.492;2023-05-10T03:36:33;2.95;;;2.00;;
74152;SDS011;62505;46.070;14.492;2023-05-10T03:39:00;2.10;;;1.90;;
74152;SDS011;62505;46.070;14.492;2023-05-10T03:41:27;2.13;;;1.77;;
74152;SDS011;62505;46.070;14.492;2023-05-10T03:43:55;2.28;;;1.67;;
74152;SDS011;62505;46.070;14.492;2023-05-10T03:46:22;2.28;;;1.83;;
74152;SDS011;62505;46.070;14.492;2023-05-10T03:48:49;1.73;;;1.63;;
74152;SDS011;62505;46.070;14.492;2023-05-10T03:51:16;1.90;;;1.70;;
74152;SDS011;62505;46.070;14.492;2023-05-10T03:53:42;2.33;;;1.73;;
74152;SDS011;62505;46.070;14.492;2023-05-10T03:56:09;2.30;;;1.70;;
74152;SDS011;62505;46.070;14.492;2023-05-10T03:58:36;2.33;;;1.73;;
74152;SDS011;62505;46.070;14.492;2023-05-10T04:01:04;3.33;;;1.85;;
74152;SDS011;62505;46.070;14.492;2023-05-10T04:03:31;1.77;;;1.60;;
74152;SDS011;62505;46.070;14.492;2023-05-10T04:06:00;2.50;;;1.75;;
74152;SDS011;62505;46.070;14.492;2023-05-10T04:08:28;2.25;;;1.85;;
74152;SDS011;62505;46.070;14.492;2023-05-10T04:10:55;1.98;;;1.70;;
74152;SDS011;62505;46.070;14.492;2023-05-10T04:13:31;2.60;;;1.88;;
74152;SDS011;62505;46.070;14.492;2023-05-10T04:15:58;3.78;;;1.70;;
74152;SDS011;62505;46.070;14.492;2023-05-10T04:18:26;2.08;;;1.63;;
74152;SDS011;62505;46.070;14.492;2023-05-10T04:20:53;2.13;;;1.80;;
74152;SDS011;62505;46.070;14.492;2023-05-10T04:23:20;2.63;;;1.92;;
74152;SDS011;62505;46.070;14.492;2023-05-10T04:25:47;1.85;;;1.50;;
74152;SDS011;62505;46.070;14.492;2023-05-10T04:28:14;1.80;;;1.50;;
74152;SDS011;62505;46.070;14.492;2023-05-10T04:30:40;1.92;;;1.67;;
74152;SDS011;62505;46.070;14.492;2023-05-10T04:33:07;2.90;;;1.95;;
74152;SDS011;62505;46.070;14.492;2023-05-10T04:35:35;2.60;;;1.90;;
74152;SDS011;62505;46.070;14.492;2023-05-10T04:38:03;2.00;;;1.70;;
74152;SDS011;62505;46.070;14.492;2023-05-10T04:40:30;2.95;;;1.85;;
74152;SDS011;62505;46.070;14.492;2023-05-10T04:42:57;2.10;;;1.90;;
74152;SDS011;62505;46.070;14.492;2023-05-10T04:45:24;2.38;;;2.00;;
74152;SDS011;62505;46.070;14.492;2023-05-10T04:47:51;2.60;;;1.90;;
74152;SDS011;62505;46.070;14.492;2023-05-10T04:50:18;1.77;;;1.55;;
74152;SDS011;62505;46.070;14.492;2023-05-10T04:52:46;2.00;;;1.75;;
74152;SDS011;62505;46.070;14.492;2023-05-10T04:55:13;7.03;;;1.90;;
74152;SDS011;62505;46.070;14.492;2023-05-10T04:57:39;2.33;;;1.83;;
74152;SDS011;62505;46.070;14.492;2023-05-10T05:00:07;2.50;;;1.83;;
74152;SDS011;62505;46.070;14.492;2023-05-10T05:02:34;2.42;;;1.80;;
74152;SDS011;62505;46.070;14.492;2023-05-10T05:05:01;3.53;;;1.70;;
74152;SDS011;62505;46.070;14.492;2023-05-10T05:07:28;2.10;;;1.67;;
74152;SDS011;62505;46.070;14.492;2023-05-10T05:09:57;2.75;;;1.92;;
74152;SDS011;62505;46.070;14.492;2023-05-10T05:12:25;2.58;;;2.17;;
74152;SDS011;62505;46.070;14.492;2023-05-10T05:14:52;4.38;;;2.30;;
74152;SDS011;62505;46.070;14.492;2023-05-10T05:17:18;4.88;;;2.90;;
74152;SDS011;62505;46.070;14.492;2023-05-10T05:19:45;8.60;;;4.03;;
74152;SDS011;62505;46.070;14.492;2023-05-10T05:22:12;8.05;;;3.13;;
74152;SDS011;62505;46.070;14.492;2023-05-10T05:24:39;7.22;;;3.53;;
74152;SDS011;62505;46.070;14.492;2023-05-10T05:27:07;6.85;;;3.60;;
74152;SDS011;62505;46.070;14.492;2023-05-10T05:29:34;5.85;;;3.28;;
74152;SDS011;62505;46.070;14.492;2023-05-10T05:32:01;8.18;;;3.10;;
74152;SDS011;62505;46.070;14.492;2023-05-10T05:34:28;12.35;;;3.10;;
74152;SDS011;62505;46.070;14.492;2023-05-10T05:36:55;7.80;;;3.15;;
74152;SDS011;62505;46.070;14.492;2023-05-10T05:39:21;10.95;;;3.45;;
74152;SDS011;62505;46.070;14.492;2023-05-10T05:41:48;6.97;;;3.13;;
74152;SDS011;62505;46.070;14.492;2023-05-10T05:44:17;5.85;;;3.28;;
74152;SDS011;62505;46.070;14.492;2023-05-10T05:46:43;7.65;;;3.50;;
74152;SDS011;62505;46.070;14.492;2023-05-10T05:49:10;6.38;;;3.17;;
74152;SDS011;62505;46.070;14.492;2023-05-10T05:51:37;4.93;;;2.83;;
74152;SDS011;62505;46.070;14.492;2023-05-10T05:54:04;4.00;;;2.85;;
74152;SDS011;62505;46.070;14.492;2023-05-10T05:56:31;5.93;;;3.03;;
74152;SDS011;62505;46.070;14.492;2023-05-10T05:58:58;5.72;;;2.88;;
74152;SDS011;62505;46.070;14.492;2023-05-10T06:01:26;5.88;;;2.97;;
74152;SDS011;62505;46.070;14.492;2023-05-10T06:03:53;8.82;;;3.45;;
74152;SDS011;62505;46.070;14.492;2023-05-10T06:06:20;5.15;;;3.05;;
74152;SDS011;62505;46.070;14.492;2023-05-10T06:08:46;6.00;;;3.10;;
74152;SDS011;62505;46.070;14.492;2023-05-10T06:11:14;6.35;;;3.20;;
74152;SDS011;62505;46.070;14.492;2023-05-10T06:13:40;4.75;;;2.75;;
74152;SDS011;62505;46.070;14.492;2023-05-10T06:16:07;6.03;;;2.35;;
74152;SDS011;62505;46.070;14.492;2023-05-10T06:18:36;5.80;;;2.72;;
74152;SDS011;62505;46.070;14.492;2023-05-10T06:21:03;7.47;;;3.20;;
74152;SDS011;62505;46.070;14.492;2023-05-10T06:23:30;5.88;;;2.90;;
74152;SDS011;62505;46.070;14.492;2023-05-10T06:25:57;3.88;;;2.83;;
74152;SDS011;62505;46.070;14.492;2023-05-10T06:28:24;3.92;;;2.90;;
74152;SDS011;62505;46.070;14.492;2023-05-10T06:30:50;4.18;;;2.80;;
74152;SDS011;62505;46.070;14.492;2023-05-10T06:33:17;5.55;;;2.90;;
74152;SDS011;62505;46.070;14.492;2023-05-10T06:35:45;6.20;;;2.45;;
74152;SDS011;62505;46.070;14.492;2023-05-10T06:38:12;6.75;;;2.72;;
74152;SDS011;62505;46.070;14.492;2023-05-10T06:40:40;4.78;;;2.80;;
74152;SDS011;62505;46.070;14.492;2023-05-10T06:43:07;5.03;;;3.17;;
74152;SDS011;62505;46.070;14.492;2023-05-10T06:45:35;4.93;;;2.63;;
74152;SDS011;62505;46.070;14.492;2023-05-10T06:48:02;4.88;;;2.80;;
74152;SDS011;62505;46.070;14.492;2023-05-10T06:50:29;6.15;;;3.40;;
74152;SDS011;62505;46.070;14.492;2023-05-10T06:52:57;5.38;;;2.70;;
74152;SDS011;62505;46.070;14.492;2023-05-10T06:55:24;4.03;;;2.88;;
74152;SDS011;62505;46.070;14.492;2023-05-10T06:57:51;4.57;;;2.90;;
74152;SDS011;62505;46.070;14.492;2023-05-10T07:00:18;5.85;;;3.40;;
74152;SDS011;62505;46.070;14.492;2023-05-10T07:02:45;3.70;;;2.75;;
74152;SDS011;62505;46.070;14.492;2023-05-10T07:05:13;4.85;;;3.20;;
74152;SDS011;62505;46.070;14.492;2023-05-10T07:07:40;4.47;;;3.00;;
74152;SDS011;62505;46.070;14.492;2023-05-10T07:10:09;4.45;;;2.95;;
74152;SDS011;62505;46.070;14.492;2023-05-10T07:12:36;6.07;;;2.80;;
74152;SDS011;62505;46.070;14.492;2023-05-10T07:15:03;4.47;;;2.88;;
74152;SDS011;62505;46.070;14.492;2023-05-10T07:17:31;7.50;;;2.97;;
74152;SDS011;62505;46.070;14.492;2023-05-10T07:19:58;3.75;;;2.30;;
74152;SDS011;62505;46.070;14.492;2023-05-10T07:22:25;5.57;;;2.80;;
74152;SDS011;62505;46.070;14.492;2023-05-10T07:24:52;5.55;;;2.83;;
74152;SDS011;62505;46.070;14.492;2023-05-10T07:27:21;6.05;;;2.80;;
74152;SDS011;62505;46.070;14.492;2023-05-10T07:29:48;3.97;;;3.08;;
74152;SDS011;62505;46.070;14.492;2023-05-10T07:32:14;7.20;;;3.22;;
74152;SDS011;62505;46.070;14.492;2023-05-10T07:34:41;4.72;;;2.70;;
74152;SDS011;62505;46.070;14.492;2023-05-10T07:37:08;3.45;;;2.45;;
74152;SDS011;62505;46.070;14.492;2023-05-10T07:39:35;3.28;;;2.60;;
74152;SDS011;62505;46.070;14.492;2023-05-10T07:42:02;3.85;;;3.03;;
74152;SDS011;62505;46.070;14.492;2023-05-10T07:44:30;6.80;;;3.25;;
74152;SDS011;62505;46.070;14.492;2023-05-10T07:46:57;5.57;;;2.92;;
74152;SDS011;62505;46.070;14.492;2023-05-10T07:49:25;5.35;;;2.70;;
74152;SDS011;62505;46.070;14.492;2023-05-10T07:51:52;5.25;;;3.08;;
74152;SDS011;62505;46.070;14.492;2023-05-10T07:54:19;4.63;;;3.10;;
74152;SDS011;62505;46.070;14.492;2023-05-10T07:56:46;6.00;;;2.83;;
74152;SDS011;62505;46.070;14.492;2023-05-10T07:59:14;4.70;;;2.80;;
74152;SDS011;62505;46.070;14.492;2023-05-10T08:01:44;7.88;;;3.42;;
74152;SDS011;62505;46.070;14.492;2023-05-10T08:04:11;5.97;;;3.05;;
74152;SDS011;62505;46.070;14.492;2023-05-10T08:06:38;5.97;;;2.80;;
74152;SDS011;62505;46.070;14.492;2023-05-10T08:09:05;5.88;;;3.15;;
74152;SDS011;62505;46.070;14.492;2023-05-10T08:11:32;4.95;;;2.80;;
74152;SDS011;62505;46.070;14.492;2023-05-10T08:14:07;8.63;;;3.10;;
74152;SDS011;62505;46.070;14.492;2023-05-10T08:16:34;7.53;;;2.75;;
74152;SDS011;62505;46.070;14.492;2023-05-10T08:19:02;5.40;;;2.45;;
74152;SDS011;62505;46.070;14.492;2023-05-10T08:21:29;7.47;;;2.85;;
74152;SDS011;62505;46.070;14.492;2023-05-10T08:23:56;5.93;;;3.00;;
74152;SDS011;62505;46.070;14.492;2023-05-10T08:26:23;5.93;;;3.22;;
74152;SDS011;62505;46.070;14.492;2023-05-10T08:28:50;8.20;;;3.40;;
74152;SDS011;62505;46.070;14.492;2023-05-10T08:31:17;6.05;;;3.15;;
74152;SDS011;62505;46.070;14.492;2023-05-10T08:33:44;8.10;;;3.10;;
74152;SDS011;62505;46.070;14.492;2023-05-10T08:36:12;6.00;;;3.22;;
74152;SDS011;62505;46.070;14.492;2023-05-10T08:38:44;6.00;;;3.08;;
74152;SDS011;62505;46.070;14.492;2023-05-10T08:41:11;7.82;;;3.00;;
74152;SDS011;62505;46.070;14.492;2023-05-10T08:43:38;6.30;;;2.95;;
74152;SDS011;62505;46.070;14.492;2023-05-10T08:46:09;6.00;;;3.13;;
74152;SDS011;62505;46.070;14.492;2023-05-10T08:48:37;7.65;;;2.90;;
74152;SDS011;62505;46.070;14.492;2023-05-10T08:51:05;5.20;;;2.80;;
74152;SDS011;62505;46.070;14.492;2023-05-10T08:53:35;4.28;;;2.60;;
74152;SDS011;62505;46.070;14.492;2023-05-10T08:56:03;6.25;;;2.75;;
74152;SDS011;62505;46.070;14.492;2023-05-10T08:58:31;7.65;;;3.20;;
74152;SDS011;62505;46.070;14.492;2023-05-10T09:00:58;5.35;;;2.85;;
74152;SDS011;62505;46.070;14.492;2023-05-10T09:03:26;6.68;;;3.50;;
74152;SDS011;62505;46.070;14.492;2023-05-10T09:05:53;4.93;;;2.70;;
74152;SDS011;62505;46.070;14.492;2023-05-10T09:08:21;4.80;;;2.83;;
74152;SDS011;62505;46.070;14.492;2023-05-10T09:10:52;3.85;;;2.58;;
74152;SDS011;62505;46.070;14.492;2023-05-10T09:13:20;4.40;;;3.05;;
74152;SDS011;62505;46.070;14.492;2023-05-10T09:15:48;4.35;;;2.80;;
74152;SDS011;62505;46.070;14.492;2023-05-10T09:18:15;3.85;;;2.65;;
74152;SDS011;62505;46.070;14.492;2023-05-10T09:20:42;5.47;;;2.90;;
74152;SDS011;62505;46.070;14.492;2023-05-10T09:23:10;6.50;;;2.75;;
74152;SDS011;62505;46.070;14.492;2023-05-10T09:25:36;6.30;;;2.83;;
74152;SDS011;62505;46.070;14.492;2023-05-10T09:28:07;5.25;;;3.03;;
74152;SDS011;62505;46.070;14.492;2023-05-10T09:30:35;8.95;;;3.30;;
74152;SDS011;62505;46.070;14.492;2023-05-10T09:33:05;5.05;;;2.60;;
74152;SDS011;62505;46.070;14.492;2023-05-10T09:35:32;5.15;;;2.35;;
74152;SDS011;62505;46.070;14.492;2023-05-10T09:38:00;4.75;;;2.83;;
74152;SDS011;62505;46.070;14.492;2023-05-10T09:40:29;5.05;;;2.80;;
74152;SDS011;62505;46.070;14.492;2023-05-10T09:42:56;4.93;;;2.70;;
74152;SDS011;62505;46.070;14.492;2023-05-10T09:45:27;5.65;;;2.65;;
74152;SDS011;62505;46.070;14.492;2023-05-10T09:47:55;4.30;;;3.08;;
74152;SDS011;62505;46.070;14.492;2023-05-10T09:50:22;5.68;;;2.60;;
74152;SDS011;62505;46.070;14.492;2023-05-10T09:52:50;5.30;;;2.72;;
74152;SDS011;62505;46.070;14.492;2023-05-10T09:55:19;4.32;;;2.53;;
74152;SDS011;62505;46.070;14.492;2023-05-10T09:57:47;4.20;;;2.42;;
74152;SDS011;62505;46.070;14.492;2023-05-10T10:00:17;6.38;;;2.88;;
74152;SDS011;62505;46.070;14.492;2023-05-10T10:02:47;7.47;;;3.25;;
74152;SDS011;62505;46.070;14.492;2023-05-10T10:05:14;5.40;;;2.72;;
74152;SDS011;62505;46.070;14.492;2023-05-10T10:07:41;4.93;;;2.70;;
74152;SDS011;62505;46.070;14.492;2023-05-10T10:10:09;5.07;;;2.58;;
74152;SDS011;62505;46.070;14.492;2023-05-10T10:12:38;5.78;;;3.17;;
74152;SDS011;62505;46.070;14.492;2023-05-10T10:15:07;5.82;;;3.03;;
74152;SDS011;62505;46.070;14.492;2023-05-10T10:17:35;6.50;;;3.58;;
74152;SDS011;62505;46.070;14.492;2023-05-10T10:20:05;6.38;;;2.95;;
74152;SDS011;62505;46.070;14.492;2023-05-10T10:22:33;5.35;;;2.55;;
74152;SDS011;62505;46.070;14.492;2023-05-10T10:25:00;5.53;;;2.75;;
74152;SDS011;62505;46.070;14.492;2023-05-10T10:27:31;8.57;;;3.08;;
74152;SDS011;62505;46.070;14.492;2023-05-10T10:30:09;5.03;;;3.17;;
74152;SDS011;62505;46.070;14.492;2023-05-10T10:32:48;3.75;;;2.45;;
74152;SDS011;62505;46.070;14.492;2023-05-10T10:35:41;4.72;;;2.35;;
74152;SDS011;62505;46.070;14.492;2023-05-10T10:38:10;6.43;;;3.38;;
74152;SDS011;62505;46.070;14.492;2023-05-10T10:40:39;7.35;;;2.80;;
74152;SDS011;62505;46.070;14.492;2023-05-10T10:43:21;4.00;;;2.70;;
74152;SDS011;62505;46.070;14.492;2023-05-10T10:46:09;7.10;;;3.15;;
74152;SDS011;62505;46.070;14.492;2023-05-10T10:48:38;4.47;;;2.78;;
74152;SDS011;62505;46.070;14.492;2023-05-10T10:51:07;4.00;;;2.67;;
74152;SDS011;62505;46.070;14.492;2023-05-10T10:53:33;3.90;;;2.90;;
74152;SDS011;62505;46.070;14.492;2023-05-10T10:56:07;4.80;;;3.03;;
74152;SDS011;62505;46.070;14.492;2023-05-10T10:58:35;4.05;;;2.42;;
74152;SDS011;62505;46.070;14.492;2023-05-10T11:01:10;4.53;;;2.70;;
74152;SDS011;62505;46.070;14.492;2023-05-10T11:03:38;4.85;;;2.90;;
74152;SDS011;62505;46.070;14.492;2023-05-10T11:06:06;6.32;;;2.85;;
74152;SDS011;62505;46.070;14.492;2023-05-10T11:08:34;4.60;;;2.47;;
74152;SDS011;62505;46.070;14.492;2023-05-10T11:11:09;5.35;;;2.78;;
74152;SDS011;62505;46.070;14.492;2023-05-10T11:13:40;5.38;;;2.67;;
74152;SDS011;62505;46.070;14.492;2023-05-10T11:16:11;4.60;;;3.03;;
74152;SDS011;62505;46.070;14.492;2023-05-10T11:18:40;4.90;;;3.08;;
74152;SDS011;62505;46.070;14.492;2023-05-10T11:21:19;4.53;;;2.88;;
74152;SDS011;62505;46.070;14.492;2023-05-10T11:23:49;3.58;;;2.45;;
74152;SDS011;62505;46.070;14.492;2023-05-10T11:26:17;4.03;;;2.55;;
74152;SDS011;62505;46.070;14.492;2023-05-10T11:28:48;4.32;;;2.95;;
74152;SDS011;62505;46.070;14.492;2023-05-10T11:31:16;3.92;;;2.70;;
74152;SDS011;62505;46.070;14.492;2023-05-10T11:33:43;5.63;;;2.92;;
74152;SDS011;62505;46.070;14.492;2023-05-10T11:36:11;5.03;;;2.85;;
74152;SDS011;62505;46.070;14.492;2023-05-10T11:38:39;3.72;;;2.80;;
74152;SDS011;62505;46.070;14.492;2023-05-10T11:41:07;5.68;;;2.50;;
74152;SDS011;62505;46.070;14.492;2023-05-10T11:43:36;3.60;;;2.60;;
74152;SDS011;62505;46.070;14.492;2023-05-10T11:46:03;4.68;;;2.50;;
74152;SDS011;62505;46.070;14.492;2023-05-10T11:48:31;5.85;;;3.10;;
74152;SDS011;62505;46.070;14.492;2023-05-10T11:50:58;4.10;;;2.80;;
74152;SDS011;62505;46.070;14.492;2023-05-10T11:53:27;4.75;;;2.47;;
74152;SDS011;62505;46.070;14.492;2023-05-10T11:55:55;4.78;;;2.65;;
74152;SDS011;62505;46.070;14.492;2023-05-10T11:58:29;4.82;;;2.47;;
74152;SDS011;62505;46.070;14.492;2023-05-10T12:00:56;4.88;;;2.97;;
74152;SDS011;62505;46.070;14.492;2023-05-10T12:03:24;4.25;;;2.70;;
74152;SDS011;62505;46.070;14.492;2023-05-10T12:05:50;5.65;;;2.60;;
74152;SDS011;62505;46.070;14.492;2023-05-10T12:08:20;5.60;;;2.60;;
74152;SDS011;62505;46.070;14.492;2023-05-10T12:10:48;4.78;;;2.78;;
74152;SDS011;62505;46.070;14.492;2023-05-10T12:13:16;3.72;;;2.35;;
74152;SDS011;62505;46.070;14.492;2023-05-10T12:15:43;4.85;;;3.03;;
74152;SDS011;62505;46.070;14.492;2023-05-10T12:18:11;4.82;;;2.80;;
74152;SDS011;62505;46.070;14.492;2023-05-10T12:20:38;8.32;;;3.05;;
74152;SDS011;62505;46.070;14.492;2023-05-10T12:23:07;6.43;;;2.92;;
74152;SDS011;62505;46.070;14.492;2023-05-10T12:25:36;4.72;;;2.80;;
74152;SDS011;62505;46.070;14.492;2023-05-10T12:28:04;6.10;;;2.97;;
74152;SDS011;62505;46.070;14.492;2023-05-10T12:30:34;5.00;;;3.00;;
74152;SDS011;62505;46.070;14.492;2023-05-10T12:33:02;4.85;;;3.05;;
74152;SDS011;62505;46.070;14.492;2023-05-10T12:35:38;6.88;;;3.40;;
74152;SDS011;62505;46.070;14.492;2023-05-10T12:38:22;3.70;;;2.75;;
74152;SDS011;62505;46.070;14.492;2023-05-10T12:40:55;7.53;;;3.15;;
74152;SDS011;62505;46.070;14.492;2023-05-10T12:43:22;6.15;;;2.97;;
74152;SDS011;62505;46.070;14.492;2023-05-10T12:45:51;5.63;;;3.05;;
74152;SDS011;62505;46.070;14.492;2023-05-10T12:48:18;3.70;;;2.80;;
74152;SDS011;62505;46.070;14.492;2023-05-10T12:50:45;8.05;;;2.90;;
74152;SDS011;62505;46.070;14.492;2023-05-10T12:53:12;7.25;;;3.35;;
74152;SDS011;62505;46.070;14.492;2023-05-10T12:55:40;10.02;;;3.50;;
74152;SDS011;62505;46.070;14.492;2023-05-10T12:58:07;6.90;;;3.50;;
74152;SDS011;62505;46.070;14.492;2023-05-10T13:00:34;8.93;;;3.28;;
74152;SDS011;62505;46.070;14.492;2023-05-10T13:03:04;4.93;;;3.03;;
74152;SDS011;62505;46.070;14.492;2023-05-10T13:05:31;7.68;;;3.10;;
74152;SDS011;62505;46.070;14.492;2023-05-10T13:07:58;7.30;;;3.47;;
74152;SDS011;62505;46.070;14.492;2023-05-10T13:10:25;5.57;;;3.25;;
74152;SDS011;62505;46.070;14.492;2023-05-10T13:12:52;7.05;;;3.13;;
74152;SDS011;62505;46.070;14.492;2023-05-10T13:15:19;4.85;;;2.90;;
74152;SDS011;62505;46.070;14.492;2023-05-10T13:17:45;4.65;;;2.80;;
74152;SDS011;62505;46.070;14.492;2023-05-10T13:20:14;5.50;;;2.83;;
74152;SDS011;62505;46.070;14.492;2023-05-10T13:22:41;5.57;;;3.90;;
74152;SDS011;62505;46.070;14.492;2023-05-10T13:25:09;5.28;;;2.72;;
74152;SDS011;62505;46.070;14.492;2023-05-10T13:27:36;4.03;;;2.50;;
74152;SDS011;62505;46.070;14.492;2023-05-10T13:30:04;4.90;;;2.83;;
74152;SDS011;62505;46.070;14.492;2023-05-10T13:32:32;5.78;;;3.00;;
74152;SDS011;62505;46.070;14.492;2023-05-10T13:34:59;3.22;;;2.63;;
74152;SDS011;62505;46.070;14.492;2023-05-10T13:37:29;3.85;;;2.78;;
74152;SDS011;62505;46.070;14.492;2023-05-10T13:39:57;6.97;;;3.22;;
74152;SDS011;62505;46.070;14.492;2023-05-10T13:42:24;8.07;;;3.15;;
74152;SDS011;62505;46.070;14.492;2023-05-10T13:44:51;3.72;;;2.70;;
74152;SDS011;62505;46.070;14.492;2023-05-10T13:47:18;5.07;;;2.70;;
74152;SDS011;62505;46.070;14.492;2023-05-10T13:49:46;9.55;;;3.53;;
74152;SDS011;62505;46.070;14.492;2023-05-10T13:52:13;4.75;;;2.95;;
74152;SDS011;62505;46.070;14.492;2023-05-10T13:54:41;11.15;;;3.17;;
74152;SDS011;62505;46.070;14.492;2023-05-10T13:57:08;5.20;;;3.00;;
74152;SDS011;62505;46.070;14.492;2023-05-10T13:59:37;6.07;;;2.95;;
74152;SDS011;62505;46.070;14.492;2023-05-10T14:02:04;5.03;;;2.88;;
74152;SDS011;62505;46.070;14.492;2023-05-10T14:04:31;4.10;;;2.50;;
74152;SDS011;62505;46.070;14.492;2023-05-10T14:06:59;7.22;;;3.15;;
74152;SDS011;62505;46.070;14.492;2023-05-10T14:09:26;6.20;;;3.47;;
74152;SDS011;62505;46.070;14.492;2023-05-10T14:11:54;7.35;;;2.78;;
74152;SDS011;62505;46.070;14.492;2023-05-10T14:14:21;5.60;;;3.08;;
74152;SDS011;62505;46.070;14.492;2023-05-10T14:16:48;4.15;;;2.90;;
74152;SDS011;62505;46.070;14.492;2023-05-10T14:19:14;5.43;;;3.40;;
74152;SDS011;62505;46.070;14.492;2023-05-10T14:21:41;5.45;;;3.00;;
74152;SDS011;62505;46.070;14.492;2023-05-10T14:24:08;5.60;;;2.85;;
74152;SDS011;62505;46.070;14.492;2023-05-10T14:26:35;3.78;;;2.92;;
74152;SDS011;62505;46.070;14.492;2023-05-10T14:29:03;5.05;;;3.03;;
74152;SDS011;62505;46.070;14.492;2023-05-10T14:31:30;3.75;;;2.80;;
74152;SDS011;62505;46.070;14.492;2023-05-10T14:33:57;4.18;;;2.80;;
74152;SDS011;62505;46.070;14.492;2023-05-10T14:36:24;4.78;;;2.20;;
74152;SDS011;62505;46.070;14.492;2023-05-10T14:38:51;4.45;;;3.10;;
74152;SDS011;62505;46.070;14.492;2023-05-10T14:41:18;4.35;;;2.88;;
74152;SDS011;62505;46.070;14.492;2023-05-10T14:43:45;5.78;;;2.83;;